航空気象通報

ウインドサーファーのための航空気象通報による風予報です。

10/20-10/22の航空気象通報

2018年10月21日 00時11分03秒 | お天気
羽田空港
TAF RJTT 201106Z 2012/2118 35014KT 9999 FEW025 SCT050
BECMG 2106/2109 09014KT
BECMG 2112/2115 36008KT
日本時間20日21時-21日15時:350度から14ノットの風
15-18時:風が変化
18-21時:090度から14ノットの風
21-24時:風が変化
22日00-03時:360度から8ノットの風

但し、19日01-04時の間:時々

静岡空港
TAF RJNS 201106Z 2012/2118 30006KT 9999 FEW020
BECMG 2100/2103 14006KT
BECMG 2106/2109 34004KT
日本時間20日21時-21日09時:300度から6ノットの風
09-12時:風が変化
12-15時:140度から6ノットの風
15-18時:風が変化
18時-22日03時:340度から4ノットの風


福岡空港
TAF RJFF 201105Z 2012/2118 14003KT 9999 FEW030
BECMG 2100/2103 02008KT
BECMG 2109/2112 15005KT
日本時間20日21時-21日09時:140度から3ノットの風
09-12時:風が変化
12-18時:020度から8ノットの風
18-21時:風が変化
21時-22日03時:150度から5ノットの風


那覇空港
TAF ROAH 201106Z 2012/2118 03008KT 9999 FEW025
日本時間20日21時-22日03時:030度から8ノットの風


石垣空港
TAF ROIG 201108Z 2012/2118 03008KT 9999 FEW025 SCT045
日本時間20日21時-22日03時:030度から8ノットの風


マウイのカフルイ空港
PHOG 201120Z 2012/2112 03007KT P6SM VCSH FEW025 SCT045
TEMPO 2012/2016 -SHRA SCT018 BKN025
FM202000 03011G18KT P6SM VCSH SCT025 SCT050
FM210500 04010KT P6SM VCSH SCT025 SCT045 AMD LTD TO VIS AND WIND TIL 201600
ハワイ時間20日02-10時:030度から7ノットの風
10-19時:030度から11ノット、突風18ノット
19時-21日02時:040度から9ノットの風

但し、20日02-06時の間:時々

サイパン空港
PGSN 201133Z 2012/2112 02006KT P6SM VCSH FEW018 SCT050
マリアナ時間20日22時-21日22時:020度から6ノットの風
ジャンル:
お天気
コメント   この記事についてブログを書く
« 10/19-10/21の航空気象通報 | トップ | 10/22-10/24の航空気象通報 »
最近の画像もっと見る

コメントを投稿

ブログ作成者から承認されるまでコメントは反映されません。

お天気」カテゴリの最新記事